createdAt,value
2023-05-22T00:02:00.313Z,50.53
2023-05-22T00:04:31.468Z,49.05
2023-05-22T00:07:02.445Z,55.33
2023-05-22T00:09:33.801Z,47.17
2023-05-22T00:12:04.824Z,54.40
2023-05-22T00:14:36.353Z,53.20
2023-05-22T00:17:07.995Z,76.40
2023-05-22T00:19:41.748Z,64.93
2023-05-22T00:22:14.351Z,72.78
2023-05-22T00:24:45.631Z,82.68
2023-05-22T00:27:16.064Z,71.50
2023-05-22T00:29:49.645Z,56.72
2023-05-22T00:32:20.342Z,52.63
2023-05-22T00:34:51.961Z,50.72
2023-05-22T00:37:22.423Z,54.33
2023-05-22T00:39:54.620Z,83.78
2023-05-22T00:42:26.083Z,80.55
2023-05-22T00:44:58.339Z,84.45
2023-05-22T00:47:29.921Z,80.55
2023-05-22T00:50:01.696Z,55.03
2023-05-22T00:52:32.859Z,45.40
2023-05-22T00:55:05.293Z,41.65
2023-05-22T00:57:36.978Z,39.78
2023-05-22T01:00:12.716Z,42.72
2023-05-22T01:02:44.540Z,45.75
2023-05-22T01:05:19.708Z,55.13
2023-05-22T01:07:51.024Z,47.08
2023-05-22T01:10:22.227Z,45.33
2023-05-22T01:13:11.483Z,52.72
2023-05-22T01:15:55.301Z,45.10
2023-05-22T01:19:04.661Z,53.40
2023-05-22T01:21:38.721Z,74.35
2023-05-22T01:24:53.274Z,46.38
2023-05-22T01:28:02.503Z,39.08
2023-05-22T01:31:03.516Z,59.45
2023-05-22T01:33:41.896Z,41.85
2023-05-22T01:36:13.992Z,48.10
2023-05-22T01:38:45.506Z,46.67
2023-05-22T01:41:15.777Z,46.58
2023-05-22T01:43:47.646Z,58.33
2023-05-22T01:46:18.044Z,47.33
2023-05-22T01:48:48.637Z,53.65
2023-05-22T01:51:40.059Z,46.97
2023-05-22T01:54:48.228Z,53.10
2023-05-22T01:57:28.963Z,56.95
2023-05-22T02:00:10.942Z,49.65
2023-05-22T02:03:00.121Z,85.80
2023-05-22T02:05:34.630Z,74.72
2023-05-22T02:08:05.945Z,154.05
2023-05-22T02:10:38.226Z,257.67
2023-05-22T02:13:12.903Z,125.00
2023-05-22T02:15:46.880Z,57.83
2023-05-22T02:18:17.567Z,34.15
2023-05-22T02:20:48.349Z,41.40
2023-05-22T02:23:18.550Z,44.38
2023-05-22T02:25:48.964Z,35.45
2023-05-22T02:28:19.129Z,30.27
2023-05-22T02:30:49.756Z,30.60
2023-05-22T02:33:19.887Z,34.40
2023-05-22T02:35:52.451Z,33.58
2023-05-22T02:38:22.389Z,30.73
2023-05-22T02:40:52.849Z,38.67
2023-05-22T02:43:23.787Z,37.58
2023-05-22T02:45:54.571Z,33.78
2023-05-22T02:48:24.591Z,35.03
2023-05-22T02:50:54.647Z,40.15
2023-05-22T02:53:25.013Z,60.35
2023-05-22T02:55:55.682Z,73.03
2023-05-22T02:58:26.890Z,59.33
2023-05-22T03:00:57.287Z,58.50
2023-05-22T03:03:27.840Z,50.45
2023-05-22T03:05:59.540Z,50.15
2023-05-22T03:08:30.197Z,49.70
2023-05-22T03:11:01.983Z,54.40
2023-05-22T03:13:32.336Z,55.92
2023-05-22T03:16:02.505Z,55.45
2023-05-22T03:18:33.308Z,53.15
2023-05-22T03:21:03.270Z,56.10
2023-05-22T03:23:33.875Z,57.35
2023-05-22T03:26:03.913Z,49.13
2023-05-22T03:28:37.509Z,54.13
2023-05-22T03:31:10.420Z,51.20
2023-05-22T03:33:57.632Z,61.90
2023-05-22T03:36:28.267Z,66.28
2023-05-22T03:38:59.369Z,54.50
2023-05-22T03:41:29.870Z,59.67
2023-05-22T03:44:00.414Z,62.30
2023-05-22T03:46:30.584Z,63.83
2023-05-22T03:49:01.577Z,66.40
2023-05-22T03:51:32.616Z,63.60
2023-05-22T03:54:03.276Z,69.15
2023-05-22T03:56:33.350Z,64.10
2023-05-22T03:59:05.257Z,63.75
2023-05-22T04:01:35.786Z,59.97
2023-05-22T04:04:06.980Z,51.75
2023-05-22T04:06:44.211Z,60.35
2023-05-22T04:09:16.413Z,50.72
2023-05-22T04:11:47.569Z,49.03
2023-05-22T04:14:18.787Z,45.63
2023-05-22T04:16:50.435Z,40.83
2023-05-22T04:19:21.217Z,42.15
2023-05-22T04:21:51.207Z,43.53
2023-05-22T04:24:22.119Z,41.65
2023-05-22T04:26:52.040Z,43.53
2023-05-22T04:29:23.926Z,44.22
2023-05-22T04:31:55.553Z,38.00
2023-05-22T04:34:27.489Z,44.97
2023-05-22T04:36:57.558Z,33.20
2023-05-22T04:39:27.965Z,28.40
2023-05-22T04:41:59.468Z,34.10
2023-05-22T04:44:31.541Z,29.52
2023-05-22T04:47:03.241Z,30.75
2023-05-22T04:49:35.012Z,24.55
2023-05-22T04:52:05.879Z,28.02
2023-05-22T04:54:37.794Z,29.10
2023-05-22T04:57:08.612Z,28.52
2023-05-22T04:59:42.626Z,27.70
2023-05-22T05:02:12.778Z,31.52
2023-05-22T05:04:44.746Z,29.00
2023-05-22T05:07:18.724Z,30.70
2023-05-22T05:09:49.303Z,32.17
2023-05-22T05:12:19.343Z,32.33
2023-05-22T05:14:49.905Z,30.38
2023-05-22T05:17:19.841Z,29.35
2023-05-22T05:19:50.221Z,30.27
2023-05-22T05:22:20.532Z,35.67
2023-05-22T05:24:51.026Z,38.85
2023-05-22T05:27:21.214Z,37.80
2023-05-22T05:29:51.956Z,30.67
2023-05-22T05:32:29.008Z,29.15
2023-05-22T05:35:18.338Z,33.90
2023-05-22T05:37:52.843Z,36.00
2023-05-22T05:40:23.456Z,34.30
2023-05-22T05:42:54.728Z,36.58
2023-05-22T05:45:28.071Z,35.28
2023-05-22T05:47:59.050Z,29.00
2023-05-22T05:50:29.727Z,32.08
2023-05-22T05:52:59.805Z,34.60
2023-05-22T05:55:31.479Z,33.00
2023-05-22T05:58:02.746Z,31.55
2023-05-22T06:00:43.514Z,29.55
2023-05-22T06:03:13.613Z,32.95
2023-05-22T06:06:00.667Z,30.63
2023-05-22T06:08:56.275Z,34.92
2023-05-22T06:11:33.674Z,33.78
2023-05-22T06:14:05.816Z,29.15
2023-05-22T06:16:36.436Z,25.38
2023-05-22T06:19:06.620Z,27.83
2023-05-22T06:21:37.049Z,24.83
2023-05-22T06:24:07.486Z,30.27
2023-05-22T06:26:38.009Z,32.50
2023-05-22T06:29:07.928Z,30.50
2023-05-22T06:31:40.379Z,32.38
2023-05-22T06:34:11.277Z,29.92
2023-05-22T06:36:41.950Z,25.67
2023-05-22T06:39:12.216Z,31.95
2023-05-22T06:42:10.125Z,30.00
2023-05-22T06:45:12.657Z,19.00
2023-05-22T06:47:56.108Z,20.02
2023-05-22T06:50:27.164Z,22.48
2023-05-22T06:52:58.831Z,23.13
2023-05-22T06:55:29.095Z,22.20
2023-05-22T06:58:10.458Z,23.92
2023-05-22T07:00:40.787Z,25.50
2023-05-22T07:03:22.660Z,23.00
2023-05-22T07:06:13.336Z,26.23
2023-05-22T07:08:43.750Z,24.33
2023-05-22T07:11:13.958Z,23.20
2023-05-22T07:13:44.336Z,24.98
2023-05-22T07:16:16.171Z,22.70
2023-05-22T07:18:47.624Z,19.88
2023-05-22T07:21:17.720Z,18.33
2023-05-22T07:23:48.226Z,20.73
2023-05-22T07:26:18.301Z,23.20
2023-05-22T07:28:55.965Z,20.42
2023-05-22T07:31:25.996Z,23.52
2023-05-22T07:33:58.107Z,24.05
2023-05-22T07:36:29.676Z,21.17
2023-05-22T07:39:00.249Z,24.40
2023-05-22T07:41:30.345Z,20.58
2023-05-22T07:44:01.018Z,23.20
2023-05-22T07:46:36.605Z,19.80
2023-05-22T07:49:13.835Z,22.50
2023-05-22T07:51:44.862Z,23.10
2023-05-22T07:54:15.927Z,22.00
2023-05-22T07:56:48.892Z,23.00
2023-05-22T08:01:54.196Z,21.05
2023-05-22T08:04:24.863Z,23.55
2023-05-22T08:06:54.885Z,22.00
2023-05-22T08:09:25.625Z,20.85
2023-05-22T08:11:55.606Z,20.38
2023-05-22T08:14:25.992Z,21.70
2023-05-22T08:16:56.052Z,22.60
2023-05-22T08:19:27.064Z,20.33
2023-05-22T08:21:59.229Z,21.58
2023-05-22T08:24:30.940Z,22.83
2023-05-22T08:27:01.748Z,21.38
2023-05-22T08:29:32.208Z,18.55
2023-05-22T08:32:02.278Z,20.95
2023-05-22T08:34:33.650Z,20.70
2023-05-22T08:37:03.674Z,19.95
2023-05-22T08:39:34.368Z,17.73
2023-05-22T08:42:04.498Z,20.17
2023-05-22T08:44:34.973Z,20.00
2023-05-22T08:47:15.185Z,16.92
2023-05-22T08:49:46.586Z,18.30
2023-05-22T08:52:39.940Z,20.45
2023-05-22T08:55:10.891Z,18.00
2023-05-22T08:57:41.587Z,19.45
2023-05-22T09:00:12.554Z,20.80
2023-05-22T09:02:43.627Z,22.33
2023-05-22T09:05:14.548Z,21.50
2023-05-22T09:07:45.073Z,20.42
2023-05-22T09:10:15.583Z,21.63
2023-05-22T09:13:10.325Z,20.58
2023-05-22T09:15:40.763Z,21.65
2023-05-22T09:18:10.708Z,24.40
2023-05-22T09:20:41.470Z,23.80
2023-05-22T09:23:23.661Z,23.42
2023-05-22T09:25:59.290Z,22.15
2023-05-22T09:28:34.752Z,22.05
2023-05-22T09:31:07.342Z,22.45
2023-05-22T09:33:41.219Z,24.48
2023-05-22T09:36:12.127Z,24.15
2023-05-22T09:38:42.711Z,22.55
2023-05-22T09:41:13.113Z,22.13
2023-05-22T09:43:52.396Z,22.40
2023-05-22T09:46:23.164Z,19.23
2023-05-22T09:48:56.411Z,19.20
2023-05-22T09:51:28.579Z,18.80
2023-05-22T09:54:08.930Z,19.23
2023-05-22T09:56:41.935Z,18.83
2023-05-22T10:01:46.908Z,21.17
2023-05-22T10:04:19.868Z,19.00
2023-05-22T10:06:54.320Z,20.15
2023-05-22T10:09:27.767Z,18.35
2023-05-22T10:12:05.383Z,17.48
2023-05-22T10:14:37.361Z,14.95
2023-05-22T10:17:11.302Z,14.75
2023-05-22T10:19:43.911Z,14.07
2023-05-22T10:22:21.939Z,15.35
2023-05-22T10:24:53.297Z,14.63
2023-05-22T10:27:23.697Z,15.10
2023-05-22T10:30:05.035Z,14.57
2023-05-22T10:32:56.012Z,18.38
2023-05-22T10:35:53.995Z,16.58
2023-05-22T10:38:42.524Z,20.15
2023-05-22T10:41:12.720Z,17.02
2023-05-22T10:43:47.509Z,18.60
2023-05-22T10:46:17.730Z,22.13
2023-05-22T10:48:50.495Z,20.50
2023-05-22T10:51:22.638Z,22.35
2023-05-22T10:54:11.246Z,27.48
2023-05-22T10:56:41.699Z,26.77
2023-05-22T10:59:12.084Z,30.13
2023-05-22T11:01:42.146Z,31.33
2023-05-22T11:04:20.232Z,22.98
2023-05-22T11:07:06.023Z,21.02
2023-05-22T11:09:45.263Z,26.83
2023-05-22T11:12:23.604Z,24.13
2023-05-22T11:15:07.598Z,25.77
2023-05-22T11:17:47.774Z,23.65
2023-05-22T11:20:22.657Z,24.20
2023-05-22T11:23:09.899Z,22.10
2023-05-22T11:25:42.588Z,23.38
2023-05-22T11:28:13.437Z,18.45
2023-05-22T11:30:44.849Z,22.20
2023-05-22T11:33:16.100Z,23.90
2023-05-22T11:35:52.839Z,20.00
2023-05-22T11:38:23.707Z,22.98
2023-05-22T11:40:54.414Z,18.85
2023-05-22T11:43:34.269Z,18.13
2023-05-22T11:46:09.241Z,16.73
2023-05-22T11:48:43.164Z,17.00
2023-05-22T11:51:13.942Z,14.25
2023-05-22T11:53:43.897Z,18.50
2023-05-22T11:56:14.276Z,15.70
2023-05-22T11:58:44.197Z,15.38
2023-05-22T12:01:14.081Z,15.48
2023-05-22T12:03:44.676Z,15.07
2023-05-22T12:06:17.773Z,12.80
2023-05-22T12:08:48.389Z,13.07
2023-05-22T12:11:18.803Z,22.10
2023-05-22T12:13:53.189Z,14.02
2023-05-22T12:16:23.964Z,17.85
2023-05-22T12:18:55.603Z,15.90
2023-05-22T12:21:25.600Z,15.18
2023-05-22T12:23:57.028Z,17.45
2023-05-22T12:26:27.002Z,18.30
2023-05-22T12:28:57.454Z,18.80
2023-05-22T12:31:27.823Z,17.95
2023-05-22T12:33:58.974Z,18.00
2023-05-22T12:36:41.239Z,16.98
2023-05-22T12:39:13.095Z,16.58
2023-05-22T12:41:43.136Z,17.35
2023-05-22T12:44:14.124Z,17.20
2023-05-22T12:46:44.413Z,18.30
2023-05-22T12:49:14.857Z,16.00
2023-05-22T12:51:45.474Z,16.55
2023-05-22T12:54:16.516Z,14.85
2023-05-22T12:56:46.597Z,16.40
2023-05-22T12:59:18.004Z,18.05
2023-05-22T13:04:19.248Z,17.50
2023-05-22T13:06:49.593Z,16.73
2023-05-22T13:09:20.154Z,15.82
2023-05-22T13:11:50.631Z,17.50
2023-05-22T13:14:27.466Z,15.23
2023-05-22T13:16:57.902Z,17.65
2023-05-22T13:19:28.212Z,17.33
2023-05-22T13:21:58.752Z,18.45
2023-05-22T13:24:28.750Z,20.23
2023-05-22T13:26:59.138Z,16.80
2023-05-22T13:29:29.129Z,16.25
2023-05-22T13:31:59.527Z,16.67
2023-05-22T13:34:30.305Z,18.40
2023-05-22T13:37:00.918Z,15.07
2023-05-22T13:39:31.515Z,19.15
2023-05-22T13:42:01.879Z,18.85
2023-05-22T13:44:32.248Z,16.80
2023-05-22T13:47:02.286Z,19.08
2023-05-22T13:49:32.751Z,17.45
2023-05-22T13:52:02.875Z,15.45
2023-05-22T13:54:33.279Z,16.00
2023-05-22T13:57:03.734Z,18.65
2023-05-22T13:59:34.371Z,23.70
2023-05-22T14:02:04.443Z,20.17
2023-05-22T14:04:35.962Z,20.42
2023-05-22T14:07:06.147Z,22.25
2023-05-22T14:09:37.197Z,22.23
2023-05-22T14:12:07.458Z,22.92
2023-05-22T14:14:37.846Z,25.45
2023-05-22T14:17:10.132Z,19.25
2023-05-22T14:19:41.087Z,20.30
2023-05-22T14:22:11.122Z,20.33
2023-05-22T14:24:41.487Z,22.65
2023-05-22T14:27:11.281Z,20.00
2023-05-22T14:29:41.828Z,21.35
2023-05-22T14:32:11.862Z,17.60
2023-05-22T14:34:42.500Z,14.95
2023-05-22T14:37:12.526Z,16.45
2023-05-22T14:39:42.925Z,15.57
2023-05-22T14:42:12.937Z,16.77
2023-05-22T14:44:43.376Z,15.68
2023-05-22T14:47:13.751Z,16.33
2023-05-22T14:49:44.126Z,15.30
2023-05-22T14:52:14.761Z,14.10
2023-05-22T14:54:45.140Z,16.65
2023-05-22T14:57:15.601Z,13.43
2023-05-22T14:59:46.027Z,17.90
2023-05-22T15:02:16.335Z,15.45
2023-05-22T15:04:47.424Z,14.10
2023-05-22T15:07:17.437Z,14.35
2023-05-22T15:09:47.852Z,12.85
2023-05-22T15:12:17.870Z,13.77
2023-05-22T15:14:48.245Z,12.80
2023-05-22T15:17:18.316Z,12.73
2023-05-22T15:19:49.919Z,14.25
2023-05-22T15:22:20.235Z,11.90
2023-05-22T15:25:03.840Z,13.88
2023-05-22T15:27:36.234Z,14.85
2023-05-22T15:30:07.886Z,15.07
2023-05-22T15:32:38.680Z,12.27
2023-05-22T15:35:10.366Z,14.18
2023-05-22T15:37:40.574Z,12.27
2023-05-22T15:40:12.380Z,14.15
2023-05-22T15:42:42.365Z,14.50
2023-05-22T15:45:12.875Z,12.95
2023-05-22T15:47:43.988Z,12.63
2023-05-22T15:50:14.354Z,15.10
2023-05-22T15:52:44.344Z,13.88
2023-05-22T15:55:14.692Z,12.15
2023-05-22T15:57:44.487Z,12.02
2023-05-22T16:00:17.036Z,11.18
2023-05-22T16:02:48.497Z,10.98
2023-05-22T16:05:18.936Z,11.55
2023-05-22T16:07:48.947Z,11.30
2023-05-22T16:10:19.906Z,12.48
2023-05-22T16:12:49.894Z,12.68
2023-05-22T16:15:20.340Z,16.48
2023-05-22T16:17:50.488Z,14.63
2023-05-22T16:20:22.503Z,13.05
2023-05-22T16:22:53.060Z,13.13
2023-05-22T16:25:23.908Z,12.98
2023-05-22T16:27:54.023Z,13.35
2023-05-22T16:30:23.894Z,12.38
2023-05-22T16:32:54.292Z,14.88
2023-05-22T16:35:24.671Z,11.07
2023-05-22T16:37:55.331Z,11.68
2023-05-22T16:40:25.227Z,11.57
2023-05-22T16:42:55.640Z,10.60
2023-05-22T16:45:25.747Z,13.10
2023-05-22T16:47:56.328Z,12.70
2023-05-22T16:50:26.391Z,11.77
2023-05-22T16:52:56.819Z,12.55
2023-05-22T16:55:26.817Z,10.80
2023-05-22T16:57:57.179Z,13.20
2023-05-22T17:00:27.179Z,12.68
2023-05-22T17:02:57.744Z,12.75
2023-05-22T17:05:28.653Z,13.30
2023-05-22T17:07:59.082Z,10.38
2023-05-22T17:10:29.723Z,11.57
2023-05-22T17:13:00.251Z,11.25
2023-05-22T17:15:30.281Z,11.82
2023-05-22T17:18:00.764Z,10.63
2023-05-22T17:20:30.884Z,12.50
2023-05-22T17:23:01.321Z,13.38
2023-05-22T17:25:31.497Z,12.90
2023-05-22T17:28:01.910Z,10.93
2023-05-22T17:30:31.938Z,12.70
2023-05-22T17:33:04.657Z,11.85
2023-05-22T17:38:04.577Z,13.10
2023-05-22T17:40:43.817Z,17.45
2023-05-22T17:43:15.906Z,12.90
2023-05-22T17:45:50.719Z,12.73
2023-05-22T17:48:24.697Z,11.60
2023-05-22T17:50:55.134Z,11.13
2023-05-22T17:53:25.579Z,14.88
2023-05-22T17:55:55.594Z,11.23
2023-05-22T17:58:26.198Z,11.13
2023-05-22T18:00:56.022Z,10.48
2023-05-22T18:03:27.402Z,12.52
2023-05-22T18:05:57.454Z,13.73
2023-05-22T18:08:27.860Z,10.40
2023-05-22T18:10:59.265Z,10.82
2023-05-22T18:13:29.648Z,11.90
2023-05-22T18:16:00.658Z,13.55
2023-05-22T18:18:31.105Z,13.25
2023-05-22T18:21:01.173Z,15.70
2023-05-22T18:23:31.832Z,10.38
2023-05-22T18:26:02.258Z,15.05
2023-05-22T18:28:32.788Z,11.93
2023-05-22T18:31:05.187Z,13.20
2023-05-22T18:33:35.692Z,14.57
2023-05-22T18:36:06.548Z,12.05
2023-05-22T18:38:36.563Z,15.38
2023-05-22T18:41:08.327Z,14.10
2023-05-22T18:43:38.384Z,13.30
2023-05-22T18:46:08.189Z,17.27
2023-05-22T18:48:38.646Z,12.55
2023-05-22T18:51:08.565Z,14.32
2023-05-22T18:53:38.982Z,13.40
2023-05-22T18:56:08.948Z,15.02
2023-05-22T18:58:42.578Z,9.55
2023-05-22T19:01:12.659Z,12.32
2023-05-22T19:03:43.099Z,13.25
2023-05-22T19:06:13.936Z,10.88
2023-05-22T19:08:44.413Z,12.65
2023-05-22T19:11:14.174Z,12.30
2023-05-22T19:13:45.881Z,12.10
2023-05-22T19:16:16.457Z,12.60
2023-05-22T19:18:47.246Z,11.73
2023-05-22T19:21:17.228Z,14.57
2023-05-22T19:23:48.239Z,14.05
2023-05-22T19:26:18.271Z,15.82
2023-05-22T19:28:48.711Z,13.38
2023-05-22T19:31:18.740Z,11.05
2023-05-22T19:33:49.278Z,15.48
2023-05-22T19:36:19.361Z,16.20
2023-05-22T19:38:51.815Z,14.27
2023-05-22T19:41:24.018Z,14.30
2023-05-22T19:43:54.462Z,14.07
2023-05-22T19:46:24.302Z,14.23
2023-05-22T19:48:54.997Z,15.68
2023-05-22T19:51:24.988Z,14.10
2023-05-22T19:53:55.373Z,11.27
2023-05-22T19:56:25.329Z,17.65
2023-05-22T19:58:55.762Z,14.13
2023-05-22T20:01:25.839Z,13.70
2023-05-22T20:03:57.105Z,17.50
2023-05-22T20:06:31.319Z,13.98
2023-05-22T20:09:06.960Z,15.65
2023-05-22T20:11:37.576Z,18.67
2023-05-22T20:14:08.817Z,13.98
2023-05-22T20:16:38.905Z,15.52
2023-05-22T20:19:10.267Z,15.85
2023-05-22T20:21:40.435Z,16.90
2023-05-22T20:24:18.558Z,13.63
2023-05-22T20:26:49.282Z,14.00
2023-05-22T20:29:19.965Z,13.70
2023-05-22T20:31:50.202Z,12.63
2023-05-22T20:34:21.713Z,15.15
2023-05-22T20:36:51.660Z,14.73
2023-05-22T20:39:23.564Z,13.13
2023-05-22T20:41:54.122Z,17.33
2023-05-22T20:44:25.771Z,17.58
2023-05-22T20:46:55.773Z,15.00
2023-05-22T20:49:27.186Z,15.70
2023-05-22T20:51:57.320Z,22.55
2023-05-22T20:54:27.866Z,20.27
2023-05-22T20:56:58.160Z,20.85
2023-05-22T20:59:30.081Z,26.17
2023-05-22T21:02:00.191Z,20.10
2023-05-22T21:04:30.657Z,18.92
2023-05-22T21:07:00.653Z,15.23
2023-05-22T21:09:31.046Z,21.80
2023-05-22T21:12:01.032Z,14.98
2023-05-22T21:14:31.539Z,20.05
2023-05-22T21:17:01.600Z,18.92
2023-05-22T21:19:32.256Z,17.25
2023-05-22T21:22:02.253Z,17.60
2023-05-22T21:24:33.790Z,17.83
2023-05-22T21:27:03.744Z,21.05
2023-05-22T21:29:34.190Z,15.55
2023-05-22T21:32:04.206Z,16.40
2023-05-22T21:34:34.624Z,17.60
2023-05-22T21:37:05.148Z,17.98
2023-05-22T21:39:35.102Z,19.63
2023-05-22T21:42:05.740Z,19.90
2023-05-22T21:44:35.702Z,17.20
2023-05-22T21:47:06.297Z,18.17
2023-05-22T21:49:38.745Z,16.38
2023-05-22T21:52:09.933Z,18.17
2023-05-22T21:54:40.633Z,18.90
2023-05-22T21:57:11.153Z,37.92
2023-05-22T21:59:41.325Z,37.90
2023-05-22T22:02:11.868Z,24.23
2023-05-22T22:04:41.874Z,18.02
2023-05-22T22:07:11.871Z,23.45
2023-05-22T22:09:42.223Z,17.13
2023-05-22T22:12:12.202Z,21.85
2023-05-22T22:14:42.610Z,22.02
2023-05-22T22:17:12.556Z,24.77
2023-05-22T22:19:43.043Z,20.17
2023-05-22T22:22:13.614Z,26.08
2023-05-22T22:24:44.508Z,26.30
2023-05-22T22:27:15.377Z,26.63
2023-05-22T22:29:45.927Z,28.58
2023-05-22T22:32:15.969Z,20.42
2023-05-22T22:34:46.580Z,20.80
2023-05-22T22:37:16.674Z,22.23
2023-05-22T22:39:47.220Z,16.33
2023-05-22T22:42:17.252Z,18.25
2023-05-22T22:44:47.751Z,17.67
2023-05-22T22:47:18.941Z,16.77
2023-05-22T22:49:51.252Z,19.27
2023-05-22T22:52:21.465Z,16.95
2023-05-22T22:54:52.045Z,21.02
2023-05-22T22:57:22.082Z,18.23
2023-05-22T22:59:52.629Z,19.08
2023-05-22T23:02:23.008Z,17.90
2023-05-22T23:04:57.002Z,20.52
2023-05-22T23:07:27.415Z,22.67
2023-05-22T23:09:58.182Z,22.77
2023-05-22T23:12:29.012Z,24.38
2023-05-22T23:14:59.304Z,20.67
2023-05-22T23:17:30.372Z,23.38
2023-05-22T23:20:00.983Z,20.67
2023-05-22T23:22:32.225Z,21.30
2023-05-22T23:25:02.946Z,21.13
2023-05-22T23:27:33.594Z,22.05
2023-05-22T23:30:07.576Z,22.48
2023-05-22T23:32:38.925Z,26.67
2023-05-22T23:35:10.985Z,26.02
2023-05-22T23:40:11.503Z,23.15
2023-05-22T23:42:42.502Z,25.27
2023-05-22T23:45:13.619Z,20.60
2023-05-22T23:47:44.426Z,19.20
2023-05-22T23:50:14.866Z,19.67
2023-05-22T23:52:45.383Z,15.77
2023-05-22T23:55:16.235Z,16.75
2023-05-22T23:57:48.102Z,17.92
